Flood From: 22-02-2018 06:00 Until: 23-02-2018 06:00 warning for: Flood Level: Yellow info button

Although rather usual in this region, locally or potentially dangerous phenomena are expected. (such as local winds, summer thunderstorms, rising streams or high waves) Be aware and pay attention to the latest weather updates, especially if you carry out activities exposed to weather or close to a stream or shoreline. 


Meteo18 Weather Cam more information Meteo18 Weather Cam


Thunder radar more information blitzortung!


Rain radar more information rain snow radar


Visit our other weather sites:

Template documentation
and downloads

And another site



Weather Underground History page Text

Daily Summary for December 27, 2017 Units:  Metric    English   Both
« Previous Day
Next Day »
Daily Weekly Monthly Yearly Custom
  High: Low: Average:
Temperature: -17.8 °C -16.6 °C -15.4 °C
Dew Point: -17.8 °C -17.8 °C -16.4 °C
Humidity: Humidity % 76 % 87 %
Wind Speed: 0 km/h 2.6 km/h 24.5 km/h
Wind Gust: 0 km/h - -
Wind:- - WSW
Pressure: 0 hPa 33419.8 hPa -
Precipitation: 104.14 mm    
Historical Graphs
 
 
Tabular Data for December 27, 2017
Time Temperature Dew Point Pressure Wind Wind Speed Wind Gust Humidity Rainfall Rate (Hourly)
-17.8 °C -17.8 °C 0 hPa Calm     Humidity % 0 mm
00:02 -14.4 °C -15.9 °C 33650.1 hPa SSE 15.6 km/h 28.5 km/h 83 % 7.62 mm
00:12 -14.4 °C -15.9 °C 33639.9 hPa SSE 7.7 km/h 33.6 km/h 83 % 12.7 mm
00:17 -14.5 °C -15.9 °C 33639.9 hPa South 15.6 km/h 33.6 km/h 84 % 12.7 mm
00:22 -14.4 °C -15.8 °C 33626.4 hPa SSW 12.9 km/h 38.8 km/h 84 % 12.7 mm
00:27 -14.4 °C -15.9 °C 33626.4 hPa South 28.5 km/h 38.8 km/h 83 % 12.7 mm
00:32 -14.4 °C -15.9 °C 33616.2 hPa South 12.9 km/h 38.8 km/h 83 % 12.7 mm
00:37 -14.3 °C -15.9 °C 33602.7 hPa South 23.3 km/h 36.2 km/h 82 % 12.7 mm
00:47 -14.3 °C -15.8 °C 33602.7 hPa SW 33.6 km/h 36.2 km/h 82 % 12.7 mm
00:52 -14.2 °C -15.9 °C 33592.5 hPa South 15.6 km/h 44.1 km/h 81 % 12.7 mm
01:02 -14.4 °C -15.8 °C 33582.3 hPa SSW 20.8 km/h 44.1 km/h 84 % 12.7 mm
01:12 -14.6 °C -15.8 °C 33582.3 hPa SSW 23.3 km/h 44.1 km/h 86 % 20.32 mm
01:17 -14.6 °C -15.8 °C 33568.8 hPa South 18.2 km/h 33.6 km/h 86 % 12.7 mm
01:22 -14.6 °C -15.7 °C 33568.8 hPa South 15.6 km/h 33.6 km/h 87 % 12.7 mm
01:27 -14.6 °C -15.7 °C 33558.6 hPa South 18.2 km/h 36.2 km/h 87 % 12.7 mm
01:32 -14.6 °C -15.7 °C 33558.6 hPa SSW 18.2 km/h 36.2 km/h 87 % 12.7 mm
01:37 -14.6 °C -15.7 °C 33558.6 hPa South 20.8 km/h 38.8 km/h 87 % 12.7 mm
01:47 -14.6 °C -15.7 °C 33545.1 hPa SSW 25.9 km/h 36.2 km/h 87 % 20.32 mm
01:52 -14.6 °C -15.7 °C 33545.1 hPa South 20.8 km/h 36.2 km/h 87 % 20.32 mm
01:57 -14.5 °C -15.7 °C 33534.9 hPa SSW 20.8 km/h 38.8 km/h 86 % 12.7 mm
02:02 -14.4 °C -15.7 °C 33534.9 hPa South 31.1 km/h 38.8 km/h 85 % 12.7 mm
02:07 -14.4 °C -15.7 °C 33534.9 hPa SSE 18.2 km/h 44.1 km/h 86 % 12.7 mm
02:12 -14.4 °C -15.7 °C 33524.8 hPa South 12.9 km/h 44.1 km/h 85 % 12.7 mm
02:17 -14.4 °C -15.7 °C 33524.8 hPa SSW 15.6 km/h 49.2 km/h 86 % 12.7 mm
02:22 -14.4 °C -15.7 °C 33524.8 hPa SSW 15.6 km/h 49.2 km/h 86 % 12.7 mm
02:27 -14.5 °C -15.7 °C 33511.2 hPa SSW 7.7 km/h 41.4 km/h 86 % 12.7 mm
02:32 -14.5 °C -15.7 °C 33511.2 hPa SSW 15.6 km/h 41.4 km/h 86 % 12.7 mm
02:42 -14.4 °C -15.7 °C 33511.2 hPa South 20.8 km/h 38.8 km/h 85 % 12.7 mm
02:47 -14.3 °C -15.7 °C 33501.1 hPa South 23.3 km/h 46.7 km/h 84 % 12.7 mm
02:57 -14.3 °C -15.7 °C 33501.1 hPa SSW 20.8 km/h 38.8 km/h 84 % 12.7 mm
03:02 -14.3 °C -15.7 °C 33490.9 hPa SW 23.3 km/h 38.8 km/h 84 % 12.7 mm
03:07 -14.2 °C -15.7 °C 33490.9 hPa South 25.9 km/h 41.4 km/h 83 % 7.62 mm
03:12 -14.2 °C -15.7 °C 33490.9 hPa SW 28.5 km/h 41.4 km/h 83 % 7.62 mm
03:17 -14.2 °C -15.7 °C 33490.9 hPa SSW 25.9 km/h 49.2 km/h 83 % 7.62 mm
03:22 -14.2 °C -15.8 °C 33490.9 hPa SW 33.6 km/h 49.2 km/h 82 % 7.62 mm
03:27 -14.2 °C -15.8 °C 33501.1 hPa SSW 23.3 km/h 44.1 km/h 82 % 0 mm
03:32 -14.1 °C -15.7 °C 33490.9 hPa SSW 36.2 km/h 44.1 km/h 82 % 0 mm
03:37 -14.2 °C -15.8 °C 33490.9 hPa South 28.5 km/h 51.8 km/h 82 % 0 mm
03:42 -14.3 °C -15.7 °C 33490.9 hPa SSW 36.2 km/h 51.8 km/h 84 % 0 mm
03:52 -14.4 °C -15.7 °C 33490.9 hPa SSW 33.6 km/h 57 km/h 85 % 7.62 mm
03:57 -14.4 °C -15.6 °C 33490.9 hPa SW 25.9 km/h 57 km/h 87 % 12.7 mm
04:02 -14.6 °C -15.6 °C 33490.9 hPa SW 23.3 km/h 57 km/h 88 % 12.7 mm
04:12 -14.6 °C -15.6 °C 33490.9 hPa SSW 15.6 km/h 49.2 km/h 89 % 12.7 mm
04:17 -14.7 °C -15.5 °C 33477.4 hPa SW 20.8 km/h 38.8 km/h 90 % 12.7 mm
04:27 -14.7 °C -15.6 °C 33477.4 hPa SSW 23.3 km/h 36.2 km/h 90 % 20.32 mm
04:32 -14.7 °C -15.5 °C 33477.4 hPa SW 31.1 km/h 36.2 km/h 90 % 20.32 mm
04:37 -14.7 °C -15.6 °C 33477.4 hPa WSW 15.6 km/h 41.4 km/h 89 % 20.32 mm
04:42 -14.6 °C -15.6 °C 33477.4 hPa SW 25.9 km/h 41.4 km/h 89 % 20.32 mm
04:47 -14.7 °C -15.6 °C 33467.2 hPa WSW 12.9 km/h 41.4 km/h 89 % 20.32 mm
04:52 -14.7 °C -15.6 °C 33467.2 hPa SW 18.2 km/h 41.4 km/h 89 % 20.32 mm
05:02 -14.7 °C -15.6 °C 33467.2 hPa SW 12.9 km/h 25.9 km/h 89 % 12.7 mm
05:12 -14.6 °C -15.6 °C 33453.7 hPa WSW 20.8 km/h 25.9 km/h 89 % 20.32 mm
05:22 -14.6 °C -15.7 °C 33453.7 hPa WSW 12.9 km/h 25.9 km/h 87 % 20.32 mm
05:32 -14.5 °C -15.7 °C 33443.5 hPa South 15.6 km/h 31.1 km/h 86 % 12.7 mm
05:42 -14.5 °C -15.7 °C 33443.5 hPa SW 20.8 km/h 36.2 km/h 86 % 12.7 mm
05:52 -14.4 °C -15.6 °C 33433.4 hPa SW 28.5 km/h 36.2 km/h 86 % 12.7 mm
05:57 -14.4 °C -15.6 °C 33433.4 hPa SSW 20.8 km/h 49.2 km/h 86 % 7.62 mm
06:02 -14.4 °C -15.6 °C 33433.4 hPa SW 36.2 km/h 49.2 km/h 86 % 7.62 mm
06:12 -14.3 °C -15.6 °C 33433.4 hPa SW 44.1 km/h 57 km/h 86 % 0 mm
06:17 -14.3 °C -15.6 °C 33433.4 hPa South 31.1 km/h 57 km/h 86 % 0 mm
06:22 -14.3 °C -15.6 °C 33433.4 hPa SW 25.9 km/h 57 km/h 86 % 0 mm
06:32 -14.3 °C -15.6 °C 33419.8 hPa SSW 20.8 km/h 59.5 km/h 86 % 0 mm
06:42 -14.3 °C -15.6 °C 33419.8 hPa South 23.3 km/h 59.5 km/h 86 % 0 mm
06:52 -14.4 °C -15.5 °C 33419.8 hPa South 49.2 km/h 49.2 km/h 87 % 0 mm
06:57 -14.4 °C -15.4 °C 33419.8 hPa SSW 28.5 km/h 49.2 km/h 88 % 0 mm
07:02 -14.4 °C -15.4 °C 33419.8 hPa SW 36.2 km/h 64.7 km/h 88 % 7.62 mm
07:12 -14.6 °C -15.4 °C 33419.8 hPa SSW 46.7 km/h 64.7 km/h 90 % 7.62 mm
07:17 -14.6 °C -15.4 °C 33419.8 hPa SSW 36.2 km/h 64.7 km/h 90 % 7.62 mm
07:22 -14.6 °C -15.4 °C 33433.4 hPa SSW 15.6 km/h 57 km/h 90 % 7.62 mm
07:32 -14.6 °C -15.4 °C 33433.4 hPa SW 12.9 km/h 57 km/h 90 % 7.62 mm
07:37 -14.7 °C -15.5 °C 33433.4 hPa SW 12.9 km/h 41.4 km/h 90 % 7.62 mm
07:42 -14.7 °C -15.5 °C 33433.4 hPa SW 23.3 km/h 41.4 km/h 90 % 7.62 mm
07:47 -14.7 °C -15.6 °C 33433.4 hPa SW 10.3 km/h 31.1 km/h 90 % 7.62 mm
07:57 -14.8 °C -15.7 °C 33433.4 hPa SW 12.9 km/h 31.1 km/h 90 % 7.62 mm
08:07 -15.1 °C -15.8 °C 33433.4 hPa SSW 7.7 km/h 20.8 km/h 91 % 0 mm
08:17 -15.2 °C -15.9 °C 33443.5 hPa SSW 2.6 km/h 18.2 km/h 91 % 0 mm
08:22 -15.2 °C -15.9 °C 33443.5 hPa SW 5.1 km/h 18.2 km/h 92 % 0 mm
08:27 -15.2 °C -15.9 °C 33443.5 hPa SW 2.6 km/h 18.2 km/h 92 % 0 mm
08:37 -15.3 °C -16 °C 33443.5 hPa SW 5.1 km/h 12.9 km/h 92 % 0 mm
08:47 -15.3 °C -16 °C 33433.4 hPa South 5.1 km/h 12.9 km/h 92 % 0 mm
08:52 -15.4 °C -16.1 °C 33433.4 hPa SSW 7.7 km/h 10.3 km/h 92 % 0 mm
08:57 -15.4 °C -15.9 °C 33433.4 hPa South 5.1 km/h 10.3 km/h 93 % 0 mm
09:07 -15.4 °C -16 °C 33433.4 hPa SSW 7.7 km/h 12.9 km/h 93 % 0 mm
09:12 -15.4 °C -15.9 °C 33433.4 hPa SSW 7.7 km/h 12.9 km/h 93 % 0 mm
09:22 -15.3 °C -15.8 °C 33433.4 hPa South 7.7 km/h 10.3 km/h 94 % 0 mm
09:27 -15.3 °C -15.8 °C 33433.4 hPa SW 5.1 km/h 10.3 km/h 94 % 0 mm
09:32 -15.3 °C -15.8 °C 33433.4 hPa SSW 5.1 km/h 15.6 km/h 93 % 0 mm
09:42 -15.2 °C -15.7 °C 33433.4 hPa SSW 15.6 km/h 15.6 km/h 93 % 0 mm
09:47 -15.1 °C -15.8 °C 33433.4 hPa SSW 18.2 km/h 18.2 km/h 92 % 0 mm
09:52 -15.1 °C -15.8 °C 33433.4 hPa SW 23.3 km/h 25.9 km/h 92 % 0 mm
10:02 -15 °C -15.7 °C 33433.4 hPa SW 23.3 km/h 36.2 km/h 92 % 0 mm
10:07 -14.9 °C -15.6 °C 33433.4 hPa SSW 15.6 km/h 36.2 km/h 92 % 0 mm
10:17 -14.9 °C -15.5 °C 33433.4 hPa West 12.9 km/h 36.2 km/h 93 % 0 mm
10:22 -14.9 °C -15.5 °C 33433.4 hPa SW 28.5 km/h 36.2 km/h 93 % 0 mm
10:32 -14.9 °C -15.6 °C 33433.4 hPa SW 25.9 km/h 41.4 km/h 92 % 0 mm
10:42 -14.9 °C -15.4 °C 33443.5 hPa SW 33.6 km/h 41.4 km/h 93 % 0 mm
10:52 -14.8 °C -15.5 °C 33443.5 hPa SW 38.8 km/h 38.8 km/h 92 % 0 mm
11:02 -14.8 °C -15.6 °C 33453.7 hPa SSW 18.2 km/h 46.7 km/h 91 % 0 mm
11:13 -14.8 °C -15.7 °C 33433.4 hPa SSW 36.5 km/h 36.5 km/h 89 % 0 mm
11:19 -14.8 °C -15.8 °C 33433.4 hPa WSW 17.9 km/h 49.2 km/h 88 % 7.62 mm
11:21 -14.8 °C -15.8 °C 33433.4 hPa WSW 7.6 km/h 28.5 km/h 88 % 7.62 mm
11:33 -14.8 °C -15.8 °C 33443.5 hPa WSW 46.3 km/h 46.7 km/h 88 % 0 mm
11:39 -14.8 °C -16.1 °C 33433.4 hPa West 36.5 km/h 51.8 km/h 85 % 0 mm
11:45 -14.8 °C -16.1 °C 33433.4 hPa WSW 20.9 km/h 49.2 km/h 86 % 0 mm
11:51 -14.8 °C -16.1 °C 33433.4 hPa West 17.9 km/h 36.2 km/h 85 % 0 mm
11:55 -14.8 °C -16.1 °C 33433.4 hPa West 38.8 km/h 44.1 km/h 85 % 0 mm
12:01 -14.8 °C -16.1 °C 33433.4 hPa West 31.4 km/h 41.4 km/h 85 % 0 mm
12:07 -14.8 °C -16.1 °C 33433.4 hPa West 28.5 km/h 31.1 km/h 85 % 0 mm
12:13 -14.9 °C -16.1 °C 33433.4 hPa WNW 26.2 km/h 44.1 km/h 86 % 0 mm
12:19 -14.9 °C -16.2 °C 33433.4 hPa West 36.5 km/h 49.2 km/h 85 % 0 mm
12:25 -14.9 °C -16.1 °C 33443.5 hPa WNW 20.9 km/h 44.1 km/h 86 % 0 mm
12:31 -15.1 °C -16.2 °C 33443.5 hPa West 54.4 km/h 54.4 km/h 86 % 0 mm
12:37 -15.1 °C -16.2 °C 33443.5 hPa West 26.2 km/h 57 km/h 87 % 0 mm
12:39 -15.2 °C -16.2 °C 33453.7 hPa WSW 33.6 km/h 46.7 km/h 88 % 0 mm
12:45 -15.3 °C -16.3 °C 33443.5 hPa West 59.5 km/h 64.7 km/h 88 % 0 mm
12:51 -15.4 °C -16.3 °C 33453.7 hPa WNW 28.5 km/h 46.7 km/h 90 % 0 mm
12:57 -15.6 °C -16.3 °C 33453.7 hPa West 20.9 km/h 46.7 km/h 91 % 0 mm
13:03 -15.7 °C -16.4 °C 33467.2 hPa WNW 23 km/h 49.2 km/h 91 % 7.62 mm
13:09 -15.8 °C -16.6 °C 33467.2 hPa WSW 44.1 km/h 51.8 km/h 90 % 7.62 mm
13:15 -15.8 °C -16.6 °C 33477.4 hPa WSW 44.1 km/h 46.7 km/h 91 % 7.62 mm
13:21 -15.8 °C -16.5 °C 33477.4 hPa West 44.1 km/h 54.4 km/h 91 % 7.62 mm
13:25 -15.8 °C -16.5 °C 33477.4 hPa West 23 km/h 54.4 km/h 91 % 12.7 mm
13:31 -15.8 °C -16.6 °C 33477.4 hPa West 26.2 km/h 44.1 km/h 90 % 12.7 mm
13:37 -15.7 °C -16.6 °C 33477.4 hPa WNW 31.4 km/h 54.4 km/h 90 % 12.7 mm
13:43 -15.7 °C -16.6 °C 33490.9 hPa West 26.2 km/h 49.2 km/h 89 % 12.7 mm
13:49 -15.7 °C -16.6 °C 33490.9 hPa WNW 20.9 km/h 41.4 km/h 89 % 12.7 mm
13:55 -15.7 °C -16.6 °C 33490.9 hPa West 12.7 km/h 41.4 km/h 90 % 12.7 mm
14:01 -15.7 °C -16.5 °C 33490.9 hPa West 17.9 km/h 44.1 km/h 90 % 12.7 mm
14:09 -15.7 °C -16.6 °C 33501.1 hPa West 28.5 km/h 36.2 km/h 90 % 12.7 mm
14:13 -15.8 °C -16.6 °C 33501.1 hPa SW 36.5 km/h 41.4 km/h 90 % 12.7 mm
14:19 -15.8 °C -16.6 °C 33511.2 hPa West 23 km/h 38.8 km/h 90 % 12.7 mm
14:25 -15.8 °C -16.7 °C 33511.2 hPa West 38.8 km/h 51.8 km/h 90 % 12.7 mm
14:31 -15.8 °C -16.7 °C 33511.2 hPa West 17.9 km/h 57 km/h 90 % 12.7 mm
14:37 -15.8 °C -16.6 °C 33524.8 hPa West 15.6 km/h 46.7 km/h 90 % 20.32 mm
14:43 -15.7 °C -16.6 °C 33524.8 hPa West 59.5 km/h 62.1 km/h 89 % 20.32 mm
14:49 -15.7 °C -16.7 °C 33524.8 hPa WSW 23 km/h 51.8 km/h 88 % 12.7 mm
14:55 -15.7 °C -16.6 °C 33524.8 hPa West 38.8 km/h 67.3 km/h 89 % 12.7 mm
15:01 -15.7 °C -16.7 °C 33534.9 hPa West 28.5 km/h 51.8 km/h 88 % 12.7 mm
15:07 -15.7 °C -16.7 °C 33545.1 hPa WNW 26.2 km/h 49.2 km/h 88 % 12.7 mm
15:13 -15.6 °C -16.7 °C 33545.1 hPa WNW 36.5 km/h 64.7 km/h 87 % 12.7 mm
15:17 -15.6 °C -16.7 °C 33558.6 hPa WNW 20.9 km/h 49.2 km/h 87 % 12.7 mm
15:23 -15.6 °C -16.8 °C 33558.6 hPa WNW 23 km/h 49.2 km/h 86 % 12.7 mm
15:31 -15.6 °C -16.8 °C 33568.8 hPa WNW 41.7 km/h 46.7 km/h 86 % 12.7 mm
15:37 -15.6 °C -16.9 °C 33568.8 hPa West 17.9 km/h 44.1 km/h 85 % 7.62 mm
15:41 -15.6 °C -16.8 °C 33568.8 hPa West 28.5 km/h 44.1 km/h 86 % 7.62 mm
15:47 -15.6 °C -16.8 °C 33568.8 hPa WNW 33.6 km/h 41.4 km/h 85 % 12.7 mm
15:53 -15.6 °C -16.8 °C 33582.3 hPa West 17.9 km/h 28.5 km/h 86 % 12.7 mm
15:59 -15.6 °C -16.7 °C 33592.5 hPa WNW 26.2 km/h 41.4 km/h 87 % 12.7 mm
16:05 -15.7 °C -16.8 °C 33592.5 hPa West 67.1 km/h 80.3 km/h 86 % 12.7 mm
16:11 -15.7 °C -16.8 °C 33602.7 hPa West 38.8 km/h 59.5 km/h 86 % 20.32 mm
16:17 -15.7 °C -16.8 °C 33602.7 hPa WNW 20.9 km/h 44.1 km/h 87 % 20.32 mm
16:23 -15.8 °C -16.9 °C 33602.7 hPa WSW 20.9 km/h 41.4 km/h 87 % 20.32 mm
16:29 -15.8 °C -16.8 °C 33616.2 hPa WNW 44.1 km/h 51.8 km/h 88 % 25.4 mm
16:35 -15.9 °C -16.9 °C 33616.2 hPa WNW 44.1 km/h 49.2 km/h 88 % 25.4 mm
16:41 -15.9 °C -17 °C 33616.2 hPa NW 44.1 km/h 49.2 km/h 87 % 25.4 mm
16:47 -15.9 °C -16.9 °C 33616.2 hPa WNW 38.8 km/h 57 km/h 88 % 25.4 mm
16:53 -15.9 °C -17 °C 33616.2 hPa West 44.1 km/h 62.1 km/h 87 % 25.4 mm
16:59 -15.9 °C -17 °C 33626.4 hPa WNW 41.7 km/h 59.5 km/h 87 % 33.02 mm
17:05 -15.9 °C -17.1 °C 33626.4 hPa West 31.4 km/h 38.8 km/h 86 % 25.4 mm
17:11 -15.9 °C -17.2 °C 33626.4 hPa West 17.9 km/h 44.1 km/h 85 % 20.32 mm
17:17 -15.8 °C -17 °C 33626.4 hPa West 20.9 km/h 33.6 km/h 86 % 20.32 mm
17:23 -15.8 °C -17.1 °C 33639.9 hPa West 31.4 km/h 54.4 km/h 85 % 20.32 mm
17:27 -15.8 °C -17.1 °C 33639.9 hPa SW 28.5 km/h 57 km/h 85 % 12.7 mm
17:33 -15.7 °C -17.3 °C 33639.9 hPa NW 28.5 km/h 59.5 km/h 82 % 12.7 mm
17:39 -15.6 °C -17.3 °C 33639.9 hPa WNW 41.7 km/h 59.5 km/h 80 % 12.7 mm
17:45 -15.7 °C -17.4 °C 33650.1 hPa West 26.2 km/h 64.7 km/h 80 % 12.7 mm
17:51 -15.6 °C -17.3 °C 33650.1 hPa NW 31.4 km/h 62.1 km/h 80 % 12.7 mm
17:57 -15.6 °C -17.4 °C 33650.1 hPa West 36.5 km/h 57 km/h 79 % 7.62 mm
18:03 -15.6 °C -17.5 °C 33660.2 hPa WNW 33.6 km/h 57 km/h 78 % 7.62 mm
18:09 -15.5 °C -17.6 °C 33660.2 hPa WNW 38.8 km/h 46.7 km/h 77 % 7.62 mm
18:15 -15.4 °C -17.6 °C 33673.8 hPa WNW 59.5 km/h 67.3 km/h 76 % 0 mm
18:27 -15.6 °C -17.4 °C 33683.9 hPa NW 23 km/h 64.7 km/h 79 % 0 mm
18:41 -15.9 °C -17.3 °C 33707.6 hPa West 28.5 km/h 36.2 km/h 84 % 7.62 mm
18:47 -15.9 °C -17.4 °C 33707.6 hPa NW 26.2 km/h 41.4 km/h 83 % 7.62 mm
18:54 -16 °C -17.3 °C 33717.8 hPa NW 7.6 km/h 49.2 km/h 84 % 7.62 mm
19:02 -16.2 °C -17.3 °C 33717.8 hPa NW 7.6 km/h 36.2 km/h 86 % 7.62 mm
19:04 -16.2 °C -17.3 °C 33717.8 hPa WNW 33.6 km/h 49.2 km/h 86 % 7.62 mm
19:10 -16.3 °C -17.3 °C 33731.3 hPa WNW 28.5 km/h 44.1 km/h 88 % 7.62 mm
19:16 -16.4 °C -17.3 °C 33731.3 hPa WNW 7.6 km/h 31.1 km/h 89 % 7.62 mm
19:22 -16.4 °C -17.3 °C 33731.3 hPa West 28.5 km/h 33.6 km/h 89 % 12.7 mm
19:28 -16.4 °C -17.3 °C 33741.5 hPa West 20.9 km/h 38.8 km/h 89 % 12.7 mm
19:34 -16.3 °C -17.3 °C 33741.5 hPa NW 12.7 km/h 36.2 km/h 88 % 12.7 mm
19:40 -16.2 °C -17.3 °C 33751.6 hPa WSW 12.7 km/h 33.6 km/h 87 % 12.7 mm
19:46 -16.2 °C -17.3 °C 33751.6 hPa WNW 33.6 km/h 51.8 km/h 86 % 12.7 mm
19:50 -16.2 °C -17.2 °C 33765.2 hPa NW 33.6 km/h 54.4 km/h 87 % 12.7 mm
19:56 -16.2 °C -17.2 °C 33765.2 hPa WNW 51.5 km/h 54.4 km/h 87 % 12.7 mm
20:02 -16.2 °C -17.2 °C 33775.4 hPa WSW 31.4 km/h 64.7 km/h 87 % 12.7 mm
20:06 -16.3 °C -17.3 °C 33775.4 hPa WNW 49.2 km/h 59.5 km/h 88 % 12.7 mm
20:12 -16.4 °C -17.3 °C 33775.4 hPa WNW 7.6 km/h 51.8 km/h 89 % 12.7 mm
20:18 -16.4 °C -17.3 °C 33788.9 hPa WNW 5.1 km/h 31.1 km/h 90 % 0 mm
20:24 -16.4 °C -17.3 °C 33788.9 hPa West 31.4 km/h 38.8 km/h 89 % 0 mm
20:30 -16.4 °C -17.3 °C 33788.9 hPa West 26.2 km/h 36.2 km/h 90 % 0 mm
20:36 -16.4 °C -17.3 °C 33788.9 hPa West 12.7 km/h 38.8 km/h 90 % 0 mm
20:42 -16.4 °C -17.3 °C 33799.1 hPa West 31.4 km/h 54.4 km/h 89 % 0 mm
20:48 -16.4 °C -17.2 °C 33799.1 hPa West 7.6 km/h 33.6 km/h 90 % 0 mm
20:54 -16.3 °C -17.2 °C 33809.2 hPa West 23 km/h 38.8 km/h 90 % 0 mm
21:00 -16.3 °C -17.2 °C 33809.2 hPa WNW 23 km/h 23.3 km/h 90 % 0 mm
21:06 -16.4 °C -17.1 °C 33822.8 hPa NW 33.6 km/h 41.4 km/h 91 % 0 mm
21:12 -16.3 °C -17.1 °C 33822.8 hPa NW 28.5 km/h 38.8 km/h 91 % 0 mm
21:14 -16.3 °C -17.1 °C 33822.8 hPa NW 26.2 km/h 41.4 km/h 91 % 0 mm
21:20 -16.3 °C -17.2 °C 33822.8 hPa NW 10.3 km/h 33.6 km/h 90 % 7.62 mm
21:26 -16.4 °C -17.3 °C 33822.8 hPa WNW 23 km/h 36.2 km/h 89 % 7.62 mm
21:32 -16.4 °C -17.4 °C 33822.8 hPa WNW 26.2 km/h 33.6 km/h 88 % 7.62 mm
21:38 -16.4 °C -17.4 °C 33832.9 hPa WNW 5.1 km/h 33.6 km/h 88 % 7.62 mm
21:44 -16.4 °C -17.4 °C 33832.9 hPa WNW 15.6 km/h 44.1 km/h 88 % 7.62 mm
21:50 -16.4 °C -17.4 °C 33832.9 hPa WNW 26.2 km/h 33.6 km/h 88 % 7.62 mm
21:58 -16.4 °C -17.4 °C 33832.9 hPa NNW 17.9 km/h 33.6 km/h 88 % 7.62 mm
22:04 -16.4 °C -17.5 °C 33843.1 hPa NW 17.9 km/h 44.1 km/h 87 % 7.62 mm
22:10 -16.5 °C -17.6 °C 33843.1 hPa WNW 17.9 km/h 38.8 km/h 87 % 7.62 mm
22:17 -16.5 °C -17.6 °C 33856.6 hPa NNW 20.9 km/h 38.8 km/h 87 % 0 mm
22:20 -16.5 °C -17.6 °C 33856.6 hPa West 17.9 km/h 31.1 km/h 87 % 0 mm
22:26 -16.6 °C -17.6 °C 33856.6 hPa WNW 12.7 km/h 33.6 km/h 87 % 0 mm
22:32 -16.6 °C -17.6 °C 33856.6 hPa WNW 26.2 km/h 38.8 km/h 87 % 0 mm
22:34 -16.6 °C -17.6 °C 33866.8 hPa WNW 33.6 km/h 36.2 km/h 87 % 0 mm
22:40 -16.6 °C -17.7 °C 33866.8 hPa WNW 23 km/h 38.8 km/h 86 % 0 mm
22:46 -16.6 °C -17.6 °C 33866.8 hPa WSW 20.9 km/h 33.6 km/h 87 % 0 mm
22:52 -16.6 °C -17.7 °C 33866.8 hPa WNW 23 km/h 46.7 km/h 87 % 0 mm
22:58 -16.6 °C -17.6 °C 33880.3 hPa West 17.9 km/h 46.7 km/h 87 % 0 mm
23:04 -16.6 °C -17.6 °C 33880.3 hPa WNW 31.4 km/h 38.8 km/h 87 % 0 mm
23:10 -16.6 °C -17.6 °C 33880.3 hPa West 28.5 km/h 46.7 km/h 87 % 0 mm
23:18 -16.6 °C -17.6 °C 33890.5 hPa WNW 41.7 km/h 41.7 km/h 87 % 0 mm
23:24 -16.6 °C -17.6 °C 33890.5 hPa West 20.9 km/h 51.8 km/h 87 % 0 mm
23:26 -16.6 °C -17.6 °C 33890.5 hPa WNW 20.9 km/h 54.4 km/h 87 % 0 mm
23:32 -16.5 °C -17.7 °C 33890.5 hPa NW 12.7 km/h 54.4 km/h 86 % 0 mm
23:38 -16.6 °C -17.7 °C 33900.6 hPa West 23 km/h 41.4 km/h 86 % 0 mm
23:44 -16.6 °C -17.7 °C 33900.6 hPa WNW 17.9 km/h 38.8 km/h 86 % 0 mm
23:52 -16.5 °C -17.8 °C 33900.6 hPa WNW 23 km/h 33.6 km/h 85 % 0 mm
23:58 -16.6 °C -17.7 °C 33914.2 hPa WNW 12.7 km/h 28.5 km/h 86 % 0 mm
Meteo18
Compliments of Weather Underground - 4 mb

Script developed by  Jim McMurry - jmcmurry@mwt.net Adapted for the template by  Wim van der Kuil - Leuven-Template.eu

You find our weather info also at:

European Weather Network

Weather Underground

Equipment we use:

Weather-station
Davis Vue

Weather-program
Meteobridge

Weather-server
Raspberry PI 2 B+

Provider
1 and 1

Davis Vue

Meteobridge

Raspberry PI 2 B+

1 and 1